Independence — WDD6659 — position and weather

sailwx.info

Track history (hours):
 
Tides and Currents Weather Stations Pressure Air Temp Water Temp Dewpoint Dewpoint Depression Visibility Wind Speed Wind Dir Waves Ship Positions

Independence

Owner: AMNAV Maritime Corporation, Oakland, CA. More information available from US FCC via Universal Licensing System and Coast Guard Vessel Documentation Center.

Last reported at 2017-Jun-28 22:18 UTC. Time now 2017-Jun-28 22:40 UTC.
Position N 33°45' W 118°13'.

Length 24 m; draft 4.9 m.

Type: Tug. MMSI: 367175860.

Date/timePositionNaut miles runAvg speedWind from/ knotsBaromVisibWave heightAir tempDewpointWater temp
2017-Jun-28 22:18N 33°45' W 118°13'0 0.0
2017-Jun-28 21:05N 33°45' W 118°13'0 0.0
2017-Jun-28 21:00N 33°45' W 118°13'0 0.0
2017-Jun-28 20:27N 33°45' W 118°13'0 0.0
2017-Jun-28 19:58N 33°45' W 118°13'0 0.0
2017-Jun-28 18:16N 33°45' W 118°13'0 0.0
2017-Jun-28 18:00N 33°45' W 118°13'0 0.0
2017-Jun-28 17:05N 33°45' W 118°13'0 0.0
2017-Jun-28 17:00N 33°45' W 118°13'0 0.4
2017-Jun-28 16:30N 33°45' W 118°13'2 3.9
2017-Jun-28 15:58N 33°43' W 118°14'2 5.5
2017-Jun-28 15:31N 33°44' W 118°17'2 3.5
2017-Jun-28 15:00N 33°46' W 118°15'1 1.2
2017-Jun-28 14:30N 33°46' W 118°15'1 1.3
2017-Jun-28 13:30N 33°45' W 118°14'3 5.3
2017-Jun-28 13:00N 33°43' W 118°11'1 1.2
2017-Jun-28 12:30N 33°44' W 118°12'2 3.4
2017-Jun-28 11:58N 33°43' W 118°14'3 5.6
2017-Jun-28 11:30N 33°44' W 118°17'1 2.4
2017-Jun-28 11:00N 33°46' W 118°17'1 2.2
2017-Jun-28 10:30N 33°45' W 118°17'1 1.5
2017-Jun-28 10:00N 33°44' W 118°17'0 0.0
2017-Jun-28 09:30N 33°44' W 118°17'0 0.0
2017-Jun-28 09:00N 33°44' W 118°17'0 0.0
2017-Jun-28 08:29N 33°44' W 118°17'0 0.0
2017-Jun-28 07:45N 33°44' W 118°17'0 0.0
2017-Jun-28 07:30N 33°44' W 118°17'0 0.0
2017-Jun-28 07:00N 33°44' W 118°17'0 0.0
2017-Jun-28 06:30N 33°44' W 118°17'0 0.0
2017-Jun-28 06:00N 33°44' W 118°17'0 0.0
2017-Jun-28 05:30N 33°44' W 118°17'0 0.0
2017-Jun-28 05:00N 33°44' W 118°17'0 0.0
2017-Jun-28 04:29N 33°44' W 118°17'0 0.0
2017-Jun-28 04:00N 33°44' W 118°17'0 0.0
2017-Jun-28 03:30N 33°44' W 118°17'0 0.0
2017-Jun-28 02:45N 33°44' W 118°17'0 0.0
2017-Jun-28 02:30N 33°44' W 118°17'0 0.0
2017-Jun-28 02:00N 33°44' W 118°17'0 0.0
2017-Jun-28 01:29N 33°44' W 118°17'0 0.0
2017-Jun-28 01:00N 33°44' W 118°17'2 3.1
2017-Jun-28 00:30N 33°43' W 118°15'3 6.1
2017-Jun-28 00:01N 33°45' W 118°13'0 0.3
2017-Jun-27 23:30N 33°45' W 118°13'1 1.2
2017-Jun-27 23:00N 33°45' W 118°13'2 4.4
2017-Jun-27 22:30N 33°43' W 118°11'2 4.3
2017-Jun-27 22:01N 33°41' W 118°11'0 0.2
2017-Jun-27 21:31N 33°41' W 118°11'3 5.8
2017-Jun-27 20:59N 33°44' W 118°12'2 4.5
2017-Jun-27 20:30N 33°46' W 118°13'0 0.9
2017-Jun-27 20:00N 33°46' W 118°13'1 1.4
2017-Jun-27 19:30N 33°46' W 118°13'3 6.6
2017-Jun-27 19:00N 33°43' W 118°15'1 1.9
2017-Jun-27 18:16N 33°44' W 118°16'2 6.7
2017-Jun-27 18:01N 33°43' W 118°15'2 3.6
2017-Jun-27 17:30N 33°44' W 118°17'0 0.0
2017-Jun-27 16:42N 33°44' W 118°17'0 0.0
2017-Jun-27 16:26N 33°44' W 118°17'0 0.0
2017-Jun-27 16:00N 33°44' W 118°17'0 0.0
2017-Jun-27 15:30N 33°44' W 118°17'0 0.0
2017-Jun-27 15:00N 33°44' W 118°17'1 1.4
2017-Jun-27 14:00N 33°43' W 118°15'3 5.3
2017-Jun-27 13:30N 33°45' W 118°13'1 1.0
2017-Jun-27 13:00N 33°45' W 118°14'0 0.2
2017-Jun-27 12:30N 33°45' W 118°14'1 1.8
2017-Jun-27 12:00N 33°46' W 118°14'0 0.1
2017-Jun-27 11:31N 33°46' W 118°14'1 2.1
2017-Jun-27 11:00N 33°45' W 118°13'2 4.6
2017-Jun-27 10:30N 33°43' W 118°11'3 4.9
2017-Jun-27 09:56N 33°43' W 118°15'2 4.3
2017-Jun-27 09:30N 33°44' W 118°17'0 0.0
2017-Jun-27 08:53N 33°44' W 118°17'0 0.0
2017-Jun-27 08:30N 33°44' W 118°17'0 0.0
2017-Jun-27 07:57N 33°44' W 118°17'0 0.0
2017-Jun-27 07:30N 33°44' W 118°17'0 0.0
2017-Jun-27 06:16N 33°44' W 118°17'0 0.0
2017-Jun-27 06:00N 33°44' W 118°17'0 0.0
2017-Jun-27 05:29N 33°44' W 118°17'0 0.0
2017-Jun-27 05:00N 33°44' W 118°17'0 0.0
2017-Jun-27 04:26N 33°44' W 118°17'0 0.0
2017-Jun-27 03:53N 33°44' W 118°17'0 0.0
2017-Jun-27 03:30N 33°44' W 118°17'0 0.1
2017-Jun-27 03:00N 33°44' W 118°16'1 2.9
2017-Jun-27 02:30N 33°45' W 118°16'1 1.3
2017-Jun-27 01:49N 33°46' W 118°16'0 0.0
2017-Jun-27 01:29N 33°46' W 118°16'0 0.4
2017-Jun-27 01:00N 33°46' W 118°16'1 1.8
2017-Jun-27 00:31N 33°45' W 118°16'2 4.5
2017-Jun-27 00:00N 33°43' W 118°15'3 5.6
2017-Jun-26 23:30N 33°41' W 118°13'1 2.7
2017-Jun-26 23:01N 33°42' W 118°14'1 2.8
2017-Jun-26 22:30N 33°43' W 118°15'2 3.2
2017-Jun-26 22:00N 33°44' W 118°17'0 0.0
2017-Jun-26 21:30N 33°44' W 118°17'1 1.9
2017-Jun-26 21:01N 33°45' W 118°16'0 0.4
2017-Jun-26 20:30N 33°45' W 118°16'2 4.3
2017-Jun-26 20:00N 33°43' W 118°15'1 2.5
2017-Jun-26 19:30N 33°44' W 118°17'2 3.7
2017-Jun-26 19:00N 33°46' W 118°17'0 0.8
2017-Jun-26 18:31N 33°45' W 118°16'2 3.2
2017-Jun-26 18:00N 33°44' W 118°16'2 3.3
2017-Jun-26 17:31N 33°43' W 118°15'1 3.0
2017-Jun-26 17:01N 33°43' W 118°16'0 0.8
2017-Jun-26 16:30N 33°44' W 118°17'0 0.0
2017-Jun-26 16:01N 33°44' W 118°17'0 0.0
2017-Jun-26 15:30N 33°44' W 118°17'0 0.0
2017-Jun-26 15:00N 33°44' W 118°17'0 0.0
2017-Jun-26 14:28N 33°44' W 118°17'0 0.0
2017-Jun-26 13:30N 33°44' W 118°17'0 0.0
2017-Jun-26 13:00N 33°44' W 118°17'0 0.0
2017-Jun-26 12:28N 33°44' W 118°17'0 0.0
2017-Jun-26 12:00N 33°44' W 118°17'0 0.0
2017-Jun-26 11:29N 33°44' W 118°17'0 0.0
2017-Jun-26 11:00N 33°44' W 118°17'0 0.0
2017-Jun-26 10:30N 33°44' W 118°17'0 0.0
2017-Jun-26 10:00N 33°44' W 118°17'0 0.0
2017-Jun-26 09:30N 33°44' W 118°17'0 0.0
2017-Jun-26 09:00N 33°44' W 118°17'0 0.0
2017-Jun-26 08:30N 33°44' W 118°17'0 0.0
2017-Jun-26 08:00N 33°44' W 118°17'0 0.0
2017-Jun-26 07:30N 33°44' W 118°17'0 0.0
2017-Jun-26 06:20N 33°44' W 118°17'0 0.0
2017-Jun-26 06:00N 33°44' W 118°17'0 0.0
2017-Jun-26 05:30N 33°44' W 118°17'1 1.5
2017-Jun-26 05:00N 33°43' W 118°16'1 1.9
2017-Jun-26 04:30N 33°43' W 118°15'2 4.9
2017-Jun-26 04:01N 33°45' W 118°16'0 1.0
2017-Jun-26 03:31N 33°45' W 118°17'1 2.0
2017-Jun-26 03:00N 33°44' W 118°17'1 0.7
2017-Jun-26 02:10N 33°44' W 118°17'0 0.0
2017-Jun-26 02:00N 33°44' W 118°17'0 0.0
2017-Jun-26 01:30N 33°44' W 118°17'1 1.3
2017-Jun-26 01:00N 33°43' W 118°16'3 7.0
2017-Jun-26 00:31N 33°44' W 118°12'1 1.4
2017-Jun-26 00:01N 33°44' W 118°12'0 0.1
2017-Jun-25 23:31N 33°44' W 118°12'0 0.1
2017-Jun-25 23:01N 33°44' W 118°12'1 1.3
2017-Jun-25 22:31N 33°44' W 118°12'4 7.8
2017-Jun-25 22:00N 33°43' W 118°16'0 0.9
2017-Jun-25 21:30N 33°44' W 118°17'0 0.0
2017-Jun-25 20:52N 33°44' W 118°17'0 0.0
2017-Jun-25 20:12N 33°44' W 118°17'0 0.0
2017-Jun-25 19:55N 33°44' W 118°17'0 0.0
2017-Jun-25 19:30N 33°44' W 118°17'0 0.0
2017-Jun-25 19:00N 33°44' W 118°17'0 0.0
2017-Jun-25 18:30N 33°44' W 118°17'0 0.0
2017-Jun-25 18:00N 33°44' W 118°17'0 0.0
2017-Jun-25 17:30N 33°44' W 118°17'0 0.0
2017-Jun-25 17:00N 33°44' W 118°17'0 0.0
2017-Jun-25 15:51N 33°44' W 118°17'0 0.0
2017-Jun-25 15:30N 33°44' W 118°17'2 3.3
2017-Jun-25 15:00N 33°43' W 118°15'4 3.4
2017-Jun-25 13:57N 33°44' W 118°11'1 1.5
2017-Jun-25 13:21N 33°44' W 118°12'1 2.1
2017-Jun-25 13:00N 33°44' W 118°12'0 0.6
2017-Jun-25 12:14N 33°45' W 118°12'2 6.0
2017-Jun-25 11:52N 33°43' W 118°14'2 2.3
2017-Jun-25 10:55N 33°44' W 118°17'0 0.0
2017-Jun-25 09:56N 33°44' W 118°17'0 0.0
2017-Jun-25 09:10N 33°44' W 118°17'0 0.0
2017-Jun-25 08:52N 33°44' W 118°17'0 0.0
2017-Jun-25 08:28N 33°44' W 118°17'0 0.0
2017-Jun-25 07:33N 33°44' W 118°17'0 0.0
2017-Jun-25 07:17N 33°44' W 118°17'0 0.0
2017-Jun-25 06:52N 33°44' W 118°17'0 0.0
2017-Jun-25 05:05N 33°44' W 118°17'0 0.0
2017-Jun-25 04:58N 33°44' W 118°17'0 0.0
2017-Jun-25 04:28N 33°44' W 118°17'0 0.0
2017-Jun-25 04:00N 33°44' W 118°17'0 0.0
2017-Jun-25 03:30N 33°44' W 118°17'0 0.0
2017-Jun-25 03:00N 33°44' W 118°17'0 0.0
2017-Jun-25 02:29N 33°44' W 118°17'0 0.0
2017-Jun-25 01:57N 33°44' W 118°17'0 0.0
2017-Jun-25 01:30N 33°44' W 118°17'0 0.0
2017-Jun-25 01:01N 33°44' W 118°17'0 0.0
2017-Jun-25 00:30N 33°44' W 118°17'0 0.0
2017-Jun-25 00:00N 33°44' W 118°17'0 0.0
2017-Jun-24 23:22N 33°44' W 118°17'0 0.0
2017-Jun-24 22:42N 33°44' W 118°17'0 0.0
2017-Jun-24 22:30N 33°44' W 118°17'0 0.0
2017-Jun-24 21:55N 33°44' W 118°17'0 0.0
2017-Jun-24 21:30N 33°44' W 118°17'0 0.0
2017-Jun-24 20:55N 33°44' W 118°17'0 0.0
2017-Jun-24 20:29N 33°44' W 118°17'0 0.0
2017-Jun-24 20:00N 33°44' W 118°17'0 0.0
2017-Jun-24 17:38N 33°44' W 118°16'0 1.4
2017-Jun-24 17:22N 33°44' W 118°17'2 3.6
2017-Jun-24 16:56N 33°46' W 118°16'0 0.1
2017-Jun-24 16:30N 33°46' W 118°16'2 0.6
2017-Jun-24 12:59N 33°44' W 118°16'0 0.0
2017-Jun-24 12:24N 33°44' W 118°16'0 1.0
2017-Jun-24 12:00N 33°43' W 118°16'2 4.4
2017-Jun-24 11:30N 33°46' W 118°17'0 0.1
2017-Jun-24 11:01N 33°46' W 118°17'1 1.7
2017-Jun-24 10:29N 33°45' W 118°17'1 1.5
2017-Jun-24 09:49N 33°44' W 118°16'0 0.0
2017-Jun-24 09:24N 33°44' W 118°16'0 0.0
2017-Jun-24 09:00N 33°44' W 118°16'0 0.0
2017-Jun-24 08:22N 33°44' W 118°16'0 0.0
2017-Jun-24 08:00N 33°44' W 118°16'0 0.0
2017-Jun-24 07:14N 33°44' W 118°16'0 0.0
2017-Jun-24 06:59N 33°44' W 118°16'0 0.0
2017-Jun-24 06:30N 33°44' W 118°16'0 0.0
2017-Jun-24 06:00N 33°44' W 118°16'0 0.0
2017-Jun-24 05:25N 33°44' W 118°16'0 0.0
2017-Jun-24 02:09N 33°44' W 118°16'1 4.9
2017-Jun-24 02:00N 33°43' W 118°16'1 1.6
2017-Jun-24 01:28N 33°44' W 118°15'0 0.1
2017-Jun-24 00:56N 33°44' W 118°15'0 0.0
2017-Jun-24 00:24N 33°44' W 118°15'0 0.0
2017-Jun-24 00:00N 33°44' W 118°15'0 0.0
2017-Jun-23 23:30N 33°44' W 118°15'1 1.9
2017-Jun-23 22:59N 33°43' W 118°16'2 4.8
2017-Jun-23 22:30N 33°43' W 118°13'2 3.6
2017-Jun-23 22:00N 33°44' W 118°12'1 1.3
2017-Jun-23 21:31N 33°44' W 118°12'3 1.0
2017-Jun-23 18:09N 33°44' W 118°16'2 6.4
2017-Jun-23 17:53N 33°43' W 118°15'1 1.6
2017-Jun-23 17:30N 33°43' W 118°14'3 5.4
2017-Jun-23 17:00N 33°44' W 118°17'1 1.8
2017-Jun-23 16:30N 33°45' W 118°17'0 0.1
2017-Jun-23 15:59N 33°45' W 118°17'0 0.9
2017-Jun-23 15:30N 33°45' W 118°16'0 0.0
2017-Jun-23 15:00N 33°45' W 118°16'0 0.0
2017-Jun-23 14:29N 33°45' W 118°16'0 0.0
2017-Jun-23 13:28N 33°45' W 118°16'0 0.3
2017-Jun-23 13:00N 33°45' W 118°16'2 4.5
2017-Jun-23 12:30N 33°43' W 118°15'1 1.3
2017-Jun-23 12:00N 33°43' W 118°15'2 1.7
2017-Jun-23 11:05N 33°43' W 118°16'0 0.0
2017-Jun-23 02:11N 33°44' W 118°16'0 0.0
2017-Jun-23 01:53N 33°44' W 118°16'1 3.1
2017-Jun-23 01:30N 33°44' W 118°15'1 1.2
2017-Jun-23 01:00N 33°44' W 118°16'1 1.2
2017-Jun-23 00:30N 33°44' W 118°16'0 0.0
2017-Jun-22 22:53N 33°44' W 118°16'2 3.1
2017-Jun-22 22:17N 33°46' W 118°17'0 0.3
2017-Jun-22 22:00N 33°46' W 118°17'2 3.4
2017-Jun-22 21:30N 33°44' W 118°16'2 3.7
2017-Jun-22 21:01N 33°43' W 118°15'1 1.1
2017-Jun-22 20:30N 33°43' W 118°15'1 0.9
2017-Jun-22 19:04N 33°44' W 118°16'0 0.0
2017-Jun-22 18:48N 33°44' W 118°16'0 0.0
2017-Jun-22 18:25N 33°44' W 118°16'0 0.0
2017-Jun-22 17:34N 33°44' W 118°16'0 0.0
2017-Jun-22 17:15N 33°44' W 118°16'0 0.0
2017-Jun-22 17:00N 33°44' W 118°16'0 0.0
2017-Jun-22 16:30N 33°44' W 118°16'0 0.0
2017-Jun-22 15:51N 33°44' W 118°16'0 0.0
2017-Jun-22 15:01N 33°44' W 118°16'0 0.6
2017-Jun-22 14:56N 33°44' W 118°16'3 6.8
2017-Jun-22 14:30N 33°43' W 118°13'2 1.9
2017-Jun-22 13:27N 33°44' W 118°11'1 1.7
2017-Jun-22 12:52N 33°44' W 118°12'1 2.1
2017-Jun-22 12:26N 33°43' W 118°13'3 7.1
2017-Jun-22 12:00N 33°44' W 118°16'0 0.2
2017-Jun-22 11:25N 33°44' W 118°16'0 0.0
2017-Jun-22 10:57N 33°44' W 118°16'0 0.0
2017-Jun-22 10:24N 33°44' W 118°16'0 0.0
2017-Jun-22 09:53N 33°44' W 118°16'0 0.0
2017-Jun-22 09:30N 33°44' W 118°16'0 0.0
2017-Jun-22 09:00N 33°44' W 118°16'0 0.0
2017-Jun-22 08:29N 33°44' W 118°16'0 0.0
2017-Jun-22 08:00N 33°44' W 118°16'3 6.6
2017-Jun-22 07:31N 33°44' W 118°13'0 0.9
2017-Jun-22 07:00N 33°44' W 118°12'2 3.6
2017-Jun-22 06:30N 33°43' W 118°14'1 2.2
2017-Jun-22 06:00N 33°43' W 118°15'2 2.6
2017-Jun-22 05:25N 33°44' W 118°16'0 0.0
2017-Jun-22 05:00N 33°44' W 118°16'0 0.0
2017-Jun-22 03:24N 33°44' W 118°16'0 0.0
2017-Jun-22 02:58N 33°44' W 118°16'0 0.0
2017-Jun-22 02:23N 33°44' W 118°16'0 0.0
2017-Jun-22 01:59N 33°44' W 118°16'1 1.6
2017-Jun-22 01:30N 33°43' W 118°16'3 6.2
2017-Jun-22 01:00N 33°45' W 118°13'1 2.5
2017-Jun-22 00:30N 33°46' W 118°14'0 0.1
2017-Jun-22 00:00N 33°46' W 118°14'0 0.0
2017-Jun-21 23:31N 33°46' W 118°14'0 0.0
2017-Jun-21 23:01N 33°46' W 118°14'1 1.0
2017-Jun-21 22:31N 33°46' W 118°13'2 4.2
2017-Jun-21 22:00N 33°45' W 118°12'1 1.5
2017-Jun-21 21:30N 33°44' W 118°12'0 0.3
2017-Jun-21 20:58N 33°44' W 118°12'0 0.6
2017-Jun-21 20:30N 33°44' W 118°13'1 1.9
2017-Jun-21 19:52N 33°43' W 118°11'3 8.9
2017-Jun-21 19:29N 33°43' W 118°15'1 1.1
2017-Jun-21 18:24N 33°44' W 118°16'0 0.2
2017-Jun-21 18:00N 33°44' W 118°17'0 0.0
2017-Jun-21 16:08N 33°44' W 118°17'0 0.0
2017-Jun-21 16:00N 33°44' W 118°17'0 0.1
2017-Jun-21 15:30N 33°44' W 118°16'0 0.1
2017-Jun-21 15:00N 33°44' W 118°16'0 0.1
2017-Jun-21 14:30N 33°44' W 118°17'0 0.0
2017-Jun-21 12:49N 33°44' W 118°17'0 0.0
2017-Jun-21 12:25N 33°44' W 118°17'0 0.0
2017-Jun-21 12:00N 33°44' W 118°17'0 0.0
2017-Jun-21 10:49N 33°44' W 118°17'0 0.0
2017-Jun-21 10:27N 33°44' W 118°17'0 0.0
2017-Jun-21 10:00N 33°44' W 118°17'0 0.0
2017-Jun-21 09:20N 33°44' W 118°17'0 0.0
2017-Jun-21 09:00N 33°44' W 118°17'0 0.0
2017-Jun-21 08:30N 33°44' W 118°17'0 0.0
2017-Jun-21 08:00N 33°44' W 118°17'0 0.0
2017-Jun-21 07:26N 33°44' W 118°17'0 0.0
2017-Jun-21 07:00N 33°44' W 118°17'0 0.0
2017-Jun-21 06:30N 33°44' W 118°17'0 0.0
2017-Jun-21 06:00N 33°44' W 118°17'0 0.0
2017-Jun-21 05:30N 33°44' W 118°17'0 0.0
2017-Jun-21 04:59N 33°44' W 118°17'0 0.0
2017-Jun-21 04:30N 33°44' W 118°17'0 0.0
2017-Jun-21 04:01N 33°44' W 118°17'0 0.0
2017-Jun-21 03:30N 33°44' W 118°17'0 0.0
2017-Jun-21 03:00N 33°44' W 118°17'0 0.0
2017-Jun-21 01:49N 33°44' W 118°17'0 0.0
2017-Jun-21 01:30N 33°44' W 118°17'0 0.0
2017-Jun-21 00:37N 33°44' W 118°17'0 0.0
2017-Jun-21 00:30N 33°44' W 118°17'0 0.0
2017-Jun-21 00:00N 33°44' W 118°17'0 0.0
2017-Jun-20 22:54N 33°44' W 118°17'3 6.4
2017-Jun-20 22:31N 33°44' W 118°13'1 2.8
2017-Jun-20 22:01N 33°45' W 118°12'1 2.8
2017-Jun-20 21:30N 33°44' W 118°13'3 5.1
2017-Jun-20 21:00N 33°44' W 118°17'0 0.0
2017-Jun-20 20:29N 33°44' W 118°17'0 0.0
2017-Jun-20 20:00N 33°44' W 118°17'0 0.0
2017-Jun-20 19:20N 33°44' W 118°17'1 2.6
2017-Jun-20 19:00N 33°43' W 118°16'3 6.4
2017-Jun-20 18:30N 33°45' W 118°13'0 0.0
2017-Jun-20 18:00N 33°45' W 118°13'0 0.0
2017-Jun-20 17:30N 33°45' W 118°13'0 0.0
2017-Jun-20 16:59N 33°45' W 118°13'0 0.1
2017-Jun-20 16:30N 33°45' W 118°13'2 3.0
2017-Jun-20 15:53N 33°44' W 118°12'0 0.8
2017-Jun-20 15:24N 33°43' W 118°12'3 2.4
2017-Jun-20 14:00N 33°43' W 118°16'1 1.7
2017-Jun-20 13:30N 33°44' W 118°16'0 0.0
2017-Jun-20 12:59N 33°44' W 118°16'2 3.7
2017-Jun-20 12:30N 33°45' W 118°17'0 0.8
2017-Jun-20 11:59N 33°46' W 118°16'0 0.1
2017-Jun-20 11:23N 33°46' W 118°16'0 0.1
2017-Jun-20 10:38N 33°46' W 118°16'0 0.0
2017-Jun-20 10:27N 33°46' W 118°16'0 0.0
2017-Jun-20 09:54N 33°46' W 118°16'1 1.8
2017-Jun-20 09:31N 33°45' W 118°16'1 1.2
2017-Jun-20 09:00N 33°45' W 118°17'0 0.0
2017-Jun-20 08:30N 33°45' W 118°17'1 0.9
2017-Jun-20 07:11N 33°46' W 118°15'1 6.1
2017-Jun-20 06:59N 33°45' W 118°16'1 0.3
2017-Jun-20 03:34N 33°44' W 118°17'0 0.0
2017-Jun-20 03:30N 33°44' W 118°17'0 0.0
2017-Jun-20 02:41N 33°44' W 118°17'0 0.0
2017-Jun-20 02:05N 33°44' W 118°17'0 0.0
2017-Jun-20 01:54N 33°44' W 118°17'0 0.0
2017-Jun-20 01:29N 33°44' W 118°17'0 0.0
2017-Jun-20 01:00N 33°44' W 118°17'0 0.0
2017-Jun-20 00:31N 33°44' W 118°17'0 0.0
2017-Jun-20 00:00N 33°44' W 118°17'0 0.6
2017-Jun-19 23:30N 33°44' W 118°17'2 3.9
2017-Jun-19 23:01N 33°46' W 118°16'0 0.7
2017-Jun-19 22:30N 33°46' W 118°17'2 3.2
2017-Jun-19 22:00N 33°44' W 118°17'2 4.1
2017-Jun-19 21:30N 33°43' W 118°15'1 2.9
2017-Jun-19 21:00N 33°44' W 118°13'1 2.6
2017-Jun-19 20:30N 33°45' W 118°13'0 0.0
2017-Jun-19 19:28N 33°45' W 118°13'0 0.0
2017-Jun-19 18:59N 33°45' W 118°13'0 0.0
2017-Jun-19 18:30N 33°45' W 118°13'0 0.0
2017-Jun-19 18:00N 33°45' W 118°13'0 0.0
2017-Jun-19 17:30N 33°45' W 118°13'1 2.8
2017-Jun-19 16:59N 33°46' W 118°14'0 0.1
2017-Jun-19 16:30N 33°46' W 118°14'1 1.1
2017-Jun-19 16:00N 33°46' W 118°13'2 3.0
2017-Jun-19 15:24N 33°44' W 118°13'3 6.9
2017-Jun-19 14:58N 33°43' W 118°16'2 4.1
2017-Jun-19 14:29N 33°45' W 118°16'3 2.7
2017-Jun-19 13:30N 33°43' W 118°15'3 5.6
2017-Jun-19 13:00N 33°45' W 118°13'1 1.7
2017-Jun-19 12:26N 33°44' W 118°13'0 0.7
2017-Jun-19 12:00N 33°44' W 118°12'1 1.4
2017-Jun-19 11:17N 33°44' W 118°11'1 2.0
2017-Jun-19 11:00N 33°44' W 118°12'1 2.8
2017-Jun-19 10:30N 33°45' W 118°13'2 2.9
2017-Jun-19 09:54N 33°43' W 118°14'2 4.8
2017-Jun-19 09:27N 33°43' W 118°16'2 4.8
2017-Jun-19 09:01N 33°45' W 118°16'1 1.1
2017-Jun-19 08:31N 33°46' W 118°16'2 3.6
2017-Jun-19 08:00N 33°44' W 118°17'0 0.8
2017-Jun-19 07:30N 33°44' W 118°17'0 0.0
2017-Jun-19 06:24N 33°44' W 118°17'0 0.0
2017-Jun-19 05:58N 33°44' W 118°17'0 0.0
2017-Jun-19 05:27N 33°44' W 118°17'0 0.0
2017-Jun-19 04:56N 33°44' W 118°17'0 0.0
2017-Jun-19 04:30N 33°44' W 118°17'0 0.0
2017-Jun-19 03:56N 33°44' W 118°17'0 0.0
2017-Jun-19 03:30N 33°44' W 118°17'0 0.0
2017-Jun-19 02:26N 33°44' W 118°17'1 1.8
2017-Jun-19 02:00N 33°45' W 118°17'1 1.7
2017-Jun-19 01:28N 33°45' W 118°16'1 2.9
2017-Jun-19 01:00N 33°44' W 118°16'2 4.0
2017-Jun-19 00:31N 33°43' W 118°15'2 3.4
2017-Jun-19 00:01N 33°44' W 118°16'0 0.3
2017-Jun-18 23:30N 33°44' W 118°17'0 0.0
2017-Jun-18 23:00N 33°44' W 118°17'0 0.0
2017-Jun-18 22:29N 33°44' W 118°17'  
Track history (hours):
 
Tides and Currents Weather Stations Pressure Air Temp Water Temp Dewpoint Dewpoint Depression Visibility Wind Speed Wind Dir Waves Ship Positions

Independence

Owner: AMNAV Maritime Corporation, Oakland, CA. More information available from US FCC via Universal Licensing System and Coast Guard Vessel Documentation Center.

Last reported at 2017-Jun-28 22:18 UTC. Time now 2017-Jun-28 22:40 UTC.
Position N 33°45' W 118°13'.

Length 24 m; draft 4.9 m.

Type: Tug. MMSI: 367175860.

Date/timePositionNaut miles runAvg speedWind from/ knotsBaromVisibWave heightAir tempDewpointWater temp
2017-Jun-28 22:18N 33°45' W 118°13'0 0.0
2017-Jun-28 21:05N 33°45' W 118°13'0 0.0
2017-Jun-28 21:00N 33°45' W 118°13'0 0.0
2017-Jun-28 20:27N 33°45' W 118°13'0 0.0
2017-Jun-28 19:58N 33°45' W 118°13'0 0.0
2017-Jun-28 18:16N 33°45' W 118°13'0 0.0
2017-Jun-28 18:00N 33°45' W 118°13'0 0.0
2017-Jun-28 17:05N 33°45' W 118°13'0 0.0
2017-Jun-28 17:00N 33°45' W 118°13'0 0.4
2017-Jun-28 16:30N 33°45' W 118°13'2 3.9
2017-Jun-28 15:58N 33°43' W 118°14'2 5.5
2017-Jun-28 15:31N 33°44' W 118°17'2 3.5
2017-Jun-28 15:00N 33°46' W 118°15'1 1.2
2017-Jun-28 14:30N 33°46' W 118°15'1 1.3
2017-Jun-28 13:30N 33°45' W 118°14'3 5.3
2017-Jun-28 13:00N 33°43' W 118°11'1 1.2
2017-Jun-28 12:30N 33°44' W 118°12'2 3.4
2017-Jun-28 11:58N 33°43' W 118°14'3 5.6
2017-Jun-28 11:30N 33°44' W 118°17'1 2.4
2017-Jun-28 11:00N 33°46' W 118°17'1 2.2
2017-Jun-28 10:30N 33°45' W 118°17'1 1.5
2017-Jun-28 10:00N 33°44' W 118°17'0 0.0
2017-Jun-28 09:30N 33°44' W 118°17'0 0.0
2017-Jun-28 09:00N 33°44' W 118°17'0 0.0
2017-Jun-28 08:29N 33°44' W 118°17'0 0.0
2017-Jun-28 07:45N 33°44' W 118°17'0 0.0
2017-Jun-28 07:30N 33°44' W 118°17'0 0.0
2017-Jun-28 07:00N 33°44' W 118°17'0 0.0
2017-Jun-28 06:30N 33°44' W 118°17'0 0.0
2017-Jun-28 06:00N 33°44' W 118°17'0 0.0
2017-Jun-28 05:30N 33°44' W 118°17'0 0.0
2017-Jun-28 05:00N 33°44' W 118°17'0 0.0
2017-Jun-28 04:29N 33°44' W 118°17'0 0.0
2017-Jun-28 04:00N 33°44' W 118°17'0 0.0
2017-Jun-28 03:30N 33°44' W 118°17'0 0.0
2017-Jun-28 02:45N 33°44' W 118°17'0 0.0
2017-Jun-28 02:30N 33°44' W 118°17'0 0.0
2017-Jun-28 02:00N 33°44' W 118°17'0 0.0
2017-Jun-28 01:29N 33°44' W 118°17'0 0.0
2017-Jun-28 01:00N 33°44' W 118°17'2 3.1
2017-Jun-28 00:30N 33°43' W 118°15'3 6.1
2017-Jun-28 00:01N 33°45' W 118°13'0 0.3
2017-Jun-27 23:30N 33°45' W 118°13'1 1.2
2017-Jun-27 23:00N 33°45' W 118°13'2 4.4
2017-Jun-27 22:30N 33°43' W 118°11'2 4.3
2017-Jun-27 22:01N 33°41' W 118°11'0 0.2
2017-Jun-27 21:31N 33°41' W 118°11'3 5.8
2017-Jun-27 20:59N 33°44' W 118°12'2 4.5
2017-Jun-27 20:30N 33°46' W 118°13'0 0.9
2017-Jun-27 20:00N 33°46' W 118°13'1 1.4
2017-Jun-27 19:30N 33°46' W 118°13'3 6.6
2017-Jun-27 19:00N 33°43' W 118°15'1 1.9
2017-Jun-27 18:16N 33°44' W 118°16'2 6.7
2017-Jun-27 18:01N 33°43' W 118°15'2 3.6
2017-Jun-27 17:30N 33°44' W 118°17'0 0.0
2017-Jun-27 16:42N 33°44' W 118°17'0 0.0
2017-Jun-27 16:26N 33°44' W 118°17'0 0.0
2017-Jun-27 16:00N 33°44' W 118°17'0 0.0
2017-Jun-27 15:30N 33°44' W 118°17'0 0.0
2017-Jun-27 15:00N 33°44' W 118°17'1 1.4
2017-Jun-27 14:00N 33°43' W 118°15'3 5.3
2017-Jun-27 13:30N 33°45' W 118°13'1 1.0
2017-Jun-27 13:00N 33°45' W 118°14'0 0.2
2017-Jun-27 12:30N 33°45' W 118°14'1 1.8
2017-Jun-27 12:00N 33°46' W 118°14'0 0.1
2017-Jun-27 11:31N 33°46' W 118°14'1 2.1
2017-Jun-27 11:00N 33°45' W 118°13'2 4.6
2017-Jun-27 10:30N 33°43' W 118°11'3 4.9
2017-Jun-27 09:56N 33°43' W 118°15'2 4.3
2017-Jun-27 09:30N 33°44' W 118°17'0 0.0
2017-Jun-27 08:53N 33°44' W 118°17'0 0.0
2017-Jun-27 08:30N 33°44' W 118°17'0 0.0
2017-Jun-27 07:57N 33°44' W 118°17'0 0.0
2017-Jun-27 07:30N 33°44' W 118°17'0 0.0
2017-Jun-27 06:16N 33°44' W 118°17'0 0.0
2017-Jun-27 06:00N 33°44' W 118°17'0 0.0
2017-Jun-27 05:29N 33°44' W 118°17'0 0.0
2017-Jun-27 05:00N 33°44' W 118°17'0 0.0
2017-Jun-27 04:26N 33°44' W 118°17'0 0.0
2017-Jun-27 03:53N 33°44' W 118°17'0 0.0
2017-Jun-27 03:30N 33°44' W 118°17'0 0.1
2017-Jun-27 03:00N 33°44' W 118°16'1 2.9
2017-Jun-27 02:30N 33°45' W 118°16'1 1.3
2017-Jun-27 01:49N 33°46' W 118°16'0 0.0
2017-Jun-27 01:29N 33°46' W 118°16'0 0.4
2017-Jun-27 01:00N 33°46' W 118°16'1 1.8
2017-Jun-27 00:31N 33°45' W 118°16'2 4.5
2017-Jun-27 00:00N 33°43' W 118°15'3 5.6
2017-Jun-26 23:30N 33°41' W 118°13'1 2.7
2017-Jun-26 23:01N 33°42' W 118°14'1 2.8
2017-Jun-26 22:30N 33°43' W 118°15'2 3.2
2017-Jun-26 22:00N 33°44' W 118°17'0 0.0
2017-Jun-26 21:30N 33°44' W 118°17'1 1.9
2017-Jun-26 21:01N 33°45' W 118°16'0 0.4
2017-Jun-26 20:30N 33°45' W 118°16'2 4.3
2017-Jun-26 20:00N 33°43' W 118°15'1 2.5
2017-Jun-26 19:30N 33°44' W 118°17'2 3.7
2017-Jun-26 19:00N 33°46' W 118°17'0 0.8
2017-Jun-26 18:31N 33°45' W 118°16'2 3.2
2017-Jun-26 18:00N 33°44' W 118°16'2 3.3
2017-Jun-26 17:31N 33°43' W 118°15'1 3.0
2017-Jun-26 17:01N 33°43' W 118°16'0 0.8
2017-Jun-26 16:30N 33°44' W 118°17'0 0.0
2017-Jun-26 16:01N 33°44' W 118°17'0 0.0
2017-Jun-26 15:30N 33°44' W 118°17'0 0.0
2017-Jun-26 15:00N 33°44' W 118°17'0 0.0
2017-Jun-26 14:28N 33°44' W 118°17'0 0.0
2017-Jun-26 13:30N 33°44' W 118°17'0 0.0
2017-Jun-26 13:00N 33°44' W 118°17'0 0.0
2017-Jun-26 12:28N 33°44' W 118°17'0 0.0
2017-Jun-26 12:00N 33°44' W 118°17'0 0.0
2017-Jun-26 11:29N 33°44' W 118°17'0 0.0
2017-Jun-26 11:00N 33°44' W 118°17'0 0.0
2017-Jun-26 10:30N 33°44' W 118°17'0 0.0
2017-Jun-26 10:00N 33°44' W 118°17'0 0.0
2017-Jun-26 09:30N 33°44' W 118°17'0 0.0
2017-Jun-26 09:00N 33°44' W 118°17'0 0.0
2017-Jun-26 08:30N 33°44' W 118°17'0 0.0
2017-Jun-26 08:00N 33°44' W 118°17'0 0.0
2017-Jun-26 07:30N 33°44' W 118°17'0 0.0
2017-Jun-26 06:20N 33°44' W 118°17'0 0.0
2017-Jun-26 06:00N 33°44' W 118°17'0 0.0
2017-Jun-26 05:30N 33°44' W 118°17'1 1.5
2017-Jun-26 05:00N 33°43' W 118°16'1 1.9
2017-Jun-26 04:30N 33°43' W 118°15'2 4.9
2017-Jun-26 04:01N 33°45' W 118°16'0 1.0
2017-Jun-26 03:31N 33°45' W 118°17'1 2.0
2017-Jun-26 03:00N 33°44' W 118°17'1 0.7
2017-Jun-26 02:10N 33°44' W 118°17'0 0.0
2017-Jun-26 02:00N 33°44' W 118°17'0 0.0
2017-Jun-26 01:30N 33°44' W 118°17'1 1.3
2017-Jun-26 01:00N 33°43' W 118°16'3 7.0
2017-Jun-26 00:31N 33°44' W 118°12'1 1.4
2017-Jun-26 00:01N 33°44' W 118°12'0 0.1
2017-Jun-25 23:31N 33°44' W 118°12'0 0.1
2017-Jun-25 23:01N 33°44' W 118°12'1 1.3
2017-Jun-25 22:31N 33°44' W 118°12'4 7.8
2017-Jun-25 22:00N 33°43' W 118°16'0 0.9
2017-Jun-25 21:30N 33°44' W 118°17'0 0.0
2017-Jun-25 20:52N 33°44' W 118°17'0 0.0
2017-Jun-25 20:12N 33°44' W 118°17'0 0.0
2017-Jun-25 19:55N 33°44' W 118°17'0 0.0
2017-Jun-25 19:30N 33°44' W 118°17'0 0.0
2017-Jun-25 19:00N 33°44' W 118°17'0 0.0
2017-Jun-25 18:30N 33°44' W 118°17'0 0.0
2017-Jun-25 18:00N 33°44' W 118°17'0 0.0
2017-Jun-25 17:30N 33°44' W 118°17'0 0.0
2017-Jun-25 17:00N 33°44' W 118°17'0 0.0
2017-Jun-25 15:51N 33°44' W 118°17'0 0.0
2017-Jun-25 15:30N 33°44' W 118°17'2 3.3
2017-Jun-25 15:00N 33°43' W 118°15'4 3.4
2017-Jun-25 13:57N 33°44' W 118°11'1 1.5
2017-Jun-25 13:21N 33°44' W 118°12'1 2.1
2017-Jun-25 13:00N 33°44' W 118°12'0 0.6
2017-Jun-25 12:14N 33°45' W 118°12'2 6.0
2017-Jun-25 11:52N 33°43' W 118°14'2 2.3
2017-Jun-25 10:55N 33°44' W 118°17'0 0.0
2017-Jun-25 09:56N 33°44' W 118°17'0 0.0
2017-Jun-25 09:10N 33°44' W 118°17'0 0.0
2017-Jun-25 08:52N 33°44' W 118°17'0 0.0
2017-Jun-25 08:28N 33°44' W 118°17'0 0.0
2017-Jun-25 07:33N 33°44' W 118°17'0 0.0
2017-Jun-25 07:17N 33°44' W 118°17'0 0.0
2017-Jun-25 06:52N 33°44' W 118°17'0 0.0
2017-Jun-25 05:05N 33°44' W 118°17'0 0.0
2017-Jun-25 04:58N 33°44' W 118°17'0 0.0
2017-Jun-25 04:28N 33°44' W 118°17'0 0.0
2017-Jun-25 04:00N 33°44' W 118°17'0 0.0
2017-Jun-25 03:30N 33°44' W 118°17'0 0.0
2017-Jun-25 03:00N 33°44' W 118°17'0 0.0
2017-Jun-25 02:29N 33°44' W 118°17'0 0.0
2017-Jun-25 01:57N 33°44' W 118°17'0 0.0
2017-Jun-25 01:30N 33°44' W 118°17'0 0.0
2017-Jun-25 01:01N 33°44' W 118°17'0 0.0
2017-Jun-25 00:30N 33°44' W 118°17'0 0.0
2017-Jun-25 00:00N 33°44' W 118°17'0 0.0
2017-Jun-24 23:22N 33°44' W 118°17'0 0.0
2017-Jun-24 22:42N 33°44' W 118°17'0 0.0
2017-Jun-24 22:30N 33°44' W 118°17'0 0.0
2017-Jun-24 21:55N 33°44' W 118°17'0 0.0
2017-Jun-24 21:30N 33°44' W 118°17'0 0.0
2017-Jun-24 20:55N 33°44' W 118°17'0 0.0
2017-Jun-24 20:29N 33°44' W 118°17'0 0.0
2017-Jun-24 20:00N 33°44' W 118°17'0 0.0
2017-Jun-24 17:38N 33°44' W 118°16'0 1.4
2017-Jun-24 17:22N 33°44' W 118°17'2 3.6
2017-Jun-24 16:56N 33°46' W 118°16'0 0.1
2017-Jun-24 16:30N 33°46' W 118°16'2 0.6
2017-Jun-24 12:59N 33°44' W 118°16'0 0.0
2017-Jun-24 12:24N 33°44' W 118°16'0 1.0
2017-Jun-24 12:00N 33°43' W 118°16'2 4.4
2017-Jun-24 11:30N 33°46' W 118°17'0 0.1
2017-Jun-24 11:01N 33°46' W 118°17'1 1.7
2017-Jun-24 10:29N 33°45' W 118°17'1 1.5
2017-Jun-24 09:49N 33°44' W 118°16'0 0.0
2017-Jun-24 09:24N 33°44' W 118°16'0 0.0
2017-Jun-24 09:00N 33°44' W 118°16'0 0.0
2017-Jun-24 08:22N 33°44' W 118°16'0 0.0
2017-Jun-24 08:00N 33°44' W 118°16'0 0.0
2017-Jun-24 07:14N 33°44' W 118°16'0 0.0
2017-Jun-24 06:59N 33°44' W 118°16'0 0.0
2017-Jun-24 06:30N 33°44' W 118°16'0 0.0
2017-Jun-24 06:00N 33°44' W 118°16'0 0.0
2017-Jun-24 05:25N 33°44' W 118°16'0 0.0
2017-Jun-24 02:09N 33°44' W 118°16'1 4.9
2017-Jun-24 02:00N 33°43' W 118°16'1 1.6
2017-Jun-24 01:28N 33°44' W 118°15'0 0.1
2017-Jun-24 00:56N 33°44' W 118°15'0 0.0
2017-Jun-24 00:24N 33°44' W 118°15'0 0.0
2017-Jun-24 00:00N 33°44' W 118°15'0 0.0
2017-Jun-23 23:30N 33°44' W 118°15'1 1.9
2017-Jun-23 22:59N 33°43' W 118°16'2 4.8
2017-Jun-23 22:30N 33°43' W 118°13'2 3.6
2017-Jun-23 22:00N 33°44' W 118°12'1 1.3
2017-Jun-23 21:31N 33°44' W 118°12'3 1.0
2017-Jun-23 18:09N 33°44' W 118°16'2 6.4
2017-Jun-23 17:53N 33°43' W 118°15'1 1.6
2017-Jun-23 17:30N 33°43' W 118°14'3 5.4
2017-Jun-23 17:00N 33°44' W 118°17'1 1.8
2017-Jun-23 16:30N 33°45' W 118°17'0 0.1
2017-Jun-23 15:59N 33°45' W 118°17'0 0.9
2017-Jun-23 15:30N 33°45' W 118°16'0 0.0
2017-Jun-23 15:00N 33°45' W 118°16'0 0.0
2017-Jun-23 14:29N 33°45' W 118°16'0 0.0
2017-Jun-23 13:28N 33°45' W 118°16'0 0.3
2017-Jun-23 13:00N 33°45' W 118°16'2 4.5
2017-Jun-23 12:30N 33°43' W 118°15'1 1.3
2017-Jun-23 12:00N 33°43' W 118°15'2 1.7
2017-Jun-23 11:05N 33°43' W 118°16'0 0.0
2017-Jun-23 02:11N 33°44' W 118°16'0 0.0
2017-Jun-23 01:53N 33°44' W 118°16'1 3.1
2017-Jun-23 01:30N 33°44' W 118°15'1 1.2
2017-Jun-23 01:00N 33°44' W 118°16'1 1.2
2017-Jun-23 00:30N 33°44' W 118°16'0 0.0
2017-Jun-22 22:53N 33°44' W 118°16'2 3.1
2017-Jun-22 22:17N 33°46' W 118°17'0 0.3
2017-Jun-22 22:00N 33°46' W 118°17'2 3.4
2017-Jun-22 21:30N 33°44' W 118°16'2 3.7
2017-Jun-22 21:01N 33°43' W 118°15'1 1.1
2017-Jun-22 20:30N 33°43' W 118°15'1 0.9
2017-Jun-22 19:04N 33°44' W 118°16'0 0.0
2017-Jun-22 18:48N 33°44' W 118°16'0 0.0
2017-Jun-22 18:25N 33°44' W 118°16'0 0.0
2017-Jun-22 17:34N 33°44' W 118°16'0 0.0
2017-Jun-22 17:15N 33°44' W 118°16'0 0.0
2017-Jun-22 17:00N 33°44' W 118°16'0 0.0
2017-Jun-22 16:30N 33°44' W 118°16'0 0.0
2017-Jun-22 15:51N 33°44' W 118°16'0 0.0
2017-Jun-22 15:01N 33°44' W 118°16'0 0.6
2017-Jun-22 14:56N 33°44' W 118°16'3 6.8
2017-Jun-22 14:30N 33°43' W 118°13'2 1.9
2017-Jun-22 13:27N 33°44' W 118°11'1 1.7
2017-Jun-22 12:52N 33°44' W 118°12'1 2.1
2017-Jun-22 12:26N 33°43' W 118°13'3 7.1
2017-Jun-22 12:00N 33°44' W 118°16'0 0.2
2017-Jun-22 11:25N 33°44' W 118°16'0 0.0
2017-Jun-22 10:57N 33°44' W 118°16'0 0.0
2017-Jun-22 10:24N 33°44' W 118°16'0 0.0
2017-Jun-22 09:53N 33°44' W 118°16'0 0.0
2017-Jun-22 09:30N 33°44' W 118°16'0 0.0
2017-Jun-22 09:00N 33°44' W 118°16'0 0.0
2017-Jun-22 08:29N 33°44' W 118°16'0 0.0
2017-Jun-22 08:00N 33°44' W 118°16'3 6.6
2017-Jun-22 07:31N 33°44' W 118°13'0 0.9
2017-Jun-22 07:00N 33°44' W 118°12'2 3.6
2017-Jun-22 06:30N 33°43' W 118°14'1 2.2
2017-Jun-22 06:00N 33°43' W 118°15'2 2.6
2017-Jun-22 05:25N 33°44' W 118°16'0 0.0
2017-Jun-22 05:00N 33°44' W 118°16'0 0.0
2017-Jun-22 03:24N 33°44' W 118°16'0 0.0
2017-Jun-22 02:58N 33°44' W 118°16'0 0.0
2017-Jun-22 02:23N 33°44' W 118°16'0 0.0
2017-Jun-22 01:59N 33°44' W 118°16'1 1.6
2017-Jun-22 01:30N 33°43' W 118°16'3 6.2
2017-Jun-22 01:00N 33°45' W 118°13'1 2.5
2017-Jun-22 00:30N 33°46' W 118°14'0 0.1
2017-Jun-22 00:00N 33°46' W 118°14'0 0.0
2017-Jun-21 23:31N 33°46' W 118°14'0 0.0
2017-Jun-21 23:01N 33°46' W 118°14'1 1.0
2017-Jun-21 22:31N 33°46' W 118°13'2 4.2
2017-Jun-21 22:00N 33°45' W 118°12'1 1.5
2017-Jun-21 21:30N 33°44' W 118°12'0 0.3
2017-Jun-21 20:58N 33°44' W 118°12'0 0.6
2017-Jun-21 20:30N 33°44' W 118°13'1 1.9
2017-Jun-21 19:52N 33°43' W 118°11'3 8.9
2017-Jun-21 19:29N 33°43' W 118°15'1 1.1
2017-Jun-21 18:24N 33°44' W 118°16'0 0.2
2017-Jun-21 18:00N 33°44' W 118°17'0 0.0
2017-Jun-21 16:08N 33°44' W 118°17'0 0.0
2017-Jun-21 16:00N 33°44' W 118°17'0 0.1
2017-Jun-21 15:30N 33°44' W 118°16'0 0.1
2017-Jun-21 15:00N 33°44' W 118°16'0 0.1
2017-Jun-21 14:30N 33°44' W 118°17'0 0.0
2017-Jun-21 12:49N 33°44' W 118°17'0 0.0
2017-Jun-21 12:25N 33°44' W 118°17'0 0.0
2017-Jun-21 12:00N 33°44' W 118°17'0 0.0
2017-Jun-21 10:49N 33°44' W 118°17'0 0.0
2017-Jun-21 10:27N 33°44' W 118°17'0 0.0
2017-Jun-21 10:00N 33°44' W 118°17'0 0.0
2017-Jun-21 09:20N 33°44' W 118°17'0 0.0
2017-Jun-21 09:00N 33°44' W 118°17'0 0.0
2017-Jun-21 08:30N 33°44' W 118°17'0 0.0
2017-Jun-21 08:00N 33°44' W 118°17'0 0.0
2017-Jun-21 07:26N 33°44' W 118°17'0 0.0
2017-Jun-21 07:00N 33°44' W 118°17'0 0.0
2017-Jun-21 06:30N 33°44' W 118°17'0 0.0
2017-Jun-21 06:00N 33°44' W 118°17'0 0.0
2017-Jun-21 05:30N 33°44' W 118°17'0 0.0
2017-Jun-21 04:59N 33°44' W 118°17'0 0.0
2017-Jun-21 04:30N 33°44' W 118°17'0 0.0
2017-Jun-21 04:01N 33°44' W 118°17'0 0.0
2017-Jun-21 03:30N 33°44' W 118°17'0 0.0
2017-Jun-21 03:00N 33°44' W 118°17'0 0.0
2017-Jun-21 01:49N 33°44' W 118°17'0 0.0
2017-Jun-21 01:30N 33°44' W 118°17'0 0.0
2017-Jun-21 00:37N 33°44' W 118°17'0 0.0
2017-Jun-21 00:30N 33°44' W 118°17'0 0.0
2017-Jun-21 00:00N 33°44' W 118°17'0 0.0
2017-Jun-20 22:54N 33°44' W 118°17'3 6.4
2017-Jun-20 22:31N 33°44' W 118°13'1 2.8
2017-Jun-20 22:01N 33°45' W 118°12'1 2.8
2017-Jun-20 21:30N 33°44' W 118°13'3 5.1
2017-Jun-20 21:00N 33°44' W 118°17'0 0.0
2017-Jun-20 20:29N 33°44' W 118°17'0 0.0
2017-Jun-20 20:00N 33°44' W 118°17'0 0.0
2017-Jun-20 19:20N 33°44' W 118°17'1 2.6
2017-Jun-20 19:00N 33°43' W 118°16'3 6.4
2017-Jun-20 18:30N 33°45' W 118°13'0 0.0
2017-Jun-20 18:00N 33°45' W 118°13'0 0.0
2017-Jun-20 17:30N 33°45' W 118°13'0 0.0
2017-Jun-20 16:59N 33°45' W 118°13'0 0.1
2017-Jun-20 16:30N 33°45' W 118°13'2 3.0
2017-Jun-20 15:53N 33°44' W 118°12'0 0.8
2017-Jun-20 15:24N 33°43' W 118°12'3 2.4
2017-Jun-20 14:00N 33°43' W 118°16'1 1.7
2017-Jun-20 13:30N 33°44' W 118°16'0 0.0
2017-Jun-20 12:59N 33°44' W 118°16'2 3.7
2017-Jun-20 12:30N 33°45' W 118°17'0 0.8
2017-Jun-20 11:59N 33°46' W 118°16'0 0.1
2017-Jun-20 11:23N 33°46' W 118°16'0 0.1
2017-Jun-20 10:38N 33°46' W 118°16'0 0.0
2017-Jun-20 10:27N 33°46' W 118°16'0 0.0
2017-Jun-20 09:54N 33°46' W 118°16'1 1.8
2017-Jun-20 09:31N 33°45' W 118°16'1 1.2
2017-Jun-20 09:00N 33°45' W 118°17'0 0.0
2017-Jun-20 08:30N 33°45' W 118°17'1 0.9
2017-Jun-20 07:11N 33°46' W 118°15'1 6.1
2017-Jun-20 06:59N 33°45' W 118°16'1 0.3
2017-Jun-20 03:34N 33°44' W 118°17'0 0.0
2017-Jun-20 03:30N 33°44' W 118°17'0 0.0
2017-Jun-20 02:41N 33°44' W 118°17'0 0.0
2017-Jun-20 02:05N 33°44' W 118°17'0 0.0
2017-Jun-20 01:54N 33°44' W 118°17'0 0.0
2017-Jun-20 01:29N 33°44' W 118°17'0 0.0
2017-Jun-20 01:00N 33°44' W 118°17'0 0.0
2017-Jun-20 00:31N 33°44' W 118°17'0 0.0
2017-Jun-20 00:00N 33°44' W 118°17'0 0.6
2017-Jun-19 23:30N 33°44' W 118°17'2 3.9
2017-Jun-19 23:01N 33°46' W 118°16'0 0.7
2017-Jun-19 22:30N 33°46' W 118°17'2 3.2
2017-Jun-19 22:00N 33°44' W 118°17'2 4.1
2017-Jun-19 21:30N 33°43' W 118°15'1 2.9
2017-Jun-19 21:00N 33°44' W 118°13'1 2.6
2017-Jun-19 20:30N 33°45' W 118°13'0 0.0
2017-Jun-19 19:28N 33°45' W 118°13'0 0.0
2017-Jun-19 18:59N 33°45' W 118°13'0 0.0
2017-Jun-19 18:30N 33°45' W 118°13'0 0.0
2017-Jun-19 18:00N 33°45' W 118°13'0 0.0
2017-Jun-19 17:30N 33°45' W 118°13'1 2.8
2017-Jun-19 16:59N 33°46' W 118°14'0 0.1
2017-Jun-19 16:30N 33°46' W 118°14'1 1.1
2017-Jun-19 16:00N 33°46' W 118°13'2 3.0
2017-Jun-19 15:24N 33°44' W 118°13'3 6.9
2017-Jun-19 14:58N 33°43' W 118°16'2 4.1
2017-Jun-19 14:29N 33°45' W 118°16'3 2.7
2017-Jun-19 13:30N 33°43' W 118°15'3 5.6
2017-Jun-19 13:00N 33°45' W 118°13'1 1.7
2017-Jun-19 12:26N 33°44' W 118°13'0 0.7
2017-Jun-19 12:00N 33°44' W 118°12'1 1.4
2017-Jun-19 11:17N 33°44' W 118°11'1 2.0
2017-Jun-19 11:00N 33°44' W 118°12'1 2.8
2017-Jun-19 10:30N 33°45' W 118°13'2 2.9
2017-Jun-19 09:54N 33°43' W 118°14'2 4.8
2017-Jun-19 09:27N 33°43' W 118°16'2 4.8
2017-Jun-19 09:01N 33°45' W 118°16'1 1.1
2017-Jun-19 08:31N 33°46' W 118°16'2 3.6
2017-Jun-19 08:00N 33°44' W 118°17'0 0.8
2017-Jun-19 07:30N 33°44' W 118°17'0 0.0
2017-Jun-19 06:24N 33°44' W 118°17'0 0.0
2017-Jun-19 05:58N 33°44' W 118°17'0 0.0
2017-Jun-19 05:27N 33°44' W 118°17'0 0.0
2017-Jun-19 04:56N 33°44' W 118°17'0 0.0
2017-Jun-19 04:30N 33°44' W 118°17'0 0.0
2017-Jun-19 03:56N 33°44' W 118°17'0 0.0
2017-Jun-19 03:30N 33°44' W 118°17'0 0.0
2017-Jun-19 02:26N 33°44' W 118°17'1 1.8
2017-Jun-19 02:00N 33°45' W 118°17'1 1.7
2017-Jun-19 01:28N 33°45' W 118°16'1 2.9
2017-Jun-19 01:00N 33°44' W 118°16'2 4.0
2017-Jun-19 00:31N 33°43' W 118°15'2 3.4
2017-Jun-19 00:01N 33°44' W 118°16'0 0.3
2017-Jun-18 23:30N 33°44' W 118°17'0 0.0
2017-Jun-18 23:00N 33°44' W 118°17'0 0.0
2017-Jun-18 22:29N 33°44' W 118°17'  

Dump ship's entire track history